Time;durP1;ratioP1;P1;durP2;ratioP2;P2;SDS_P1;SDS_P2;PMS_P1;PMS_P2;Temp;Humidity;BMP_temperature;BMP_pressure;BME280_temperature;BME280_humidity;BME280_pressure;Samples;Min_cycle;Max_cycle;Signal;HPM_P1;HPM_P2
2022/08/03 00:01:18;;;;;;;10.75;3.72;;;;;;;20.14;89.44;101475.41;5050404;28;20108;-70
2022/08/03 00:03:43;;;;;;;13.60;4.15;;;;;;;20.06;90.49;101476.69;5051207;28;20111;-70
2022/08/03 00:06:09;;;;;;;9.25;3.92;;;;;;;19.95;90.62;101462.31;5050755;28;20424;-70
2022/08/03 00:08:34;;;;;;;10.85;4.20;;;;;;;19.87;91.43;101471.50;5048467;28;20036;-70
2022/08/03 00:11:00;;;;;;;11.52;3.90;;;;;;;19.80;91.89;101470.13;5050960;28;20037;-70
2022/08/03 00:13:25;;;;;;;12.23;4.00;;;;;;;19.72;92.45;101468.78;5051049;28;20032;-70
2022/08/03 00:15:51;;;;;;;12.93;4.10;;;;;;;19.69;92.78;101461.03;5048814;28;20103;-70
2022/08/03 00:18:17;;;;;;;10.38;4.10;;;;;;;19.70;92.40;101466.25;5050886;28;20037;-70
2022/08/03 00:20:42;;;;;;;10.23;3.85;;;;;;;19.68;92.08;101460.16;5050972;28;20040;-70
2022/08/03 00:23:08;;;;;;;10.05;4.10;;;;;;;19.69;92.18;101467.19;5050624;28;20063;-70
2022/08/03 00:25:34;;;;;;;10.10;3.90;;;;;;;19.63;92.33;101467.47;5050308;28;20021;-70
2022/08/03 00:28:01;;;;;;;11.98;4.10;;;;;;;19.66;92.06;101467.34;5051933;28;20037;-70
2022/08/03 00:30:27;;;;;;;9.07;3.92;;;;;;;19.60;91.87;101457.91;5050047;28;20116;-70
2022/08/03 00:32:52;;;;;;;15.82;4.80;;;;;;;19.62;92.02;101460.47;5050280;28;20482;-70
2022/08/03 00:35:17;;;;;;;7.90;4.30;;;;;;;19.56;92.08;101460.78;5049691;28;20033;-70
2022/08/03 00:37:43;;;;;;;11.20;4.63;;;;;;;19.53;92.10;101456.50;5050230;28;20055;-70
2022/08/03 00:40:13;;;;;;;10.48;4.13;;;;;;;19.49;92.28;101454.97;5050902;28;20388;-70
2022/08/03 00:42:50;;;;;;;9.70;4.32;;;;;;;19.49;92.05;101449.66;5050063;28;20108;-70
2022/08/03 00:45:16;;;;;;;13.27;4.57;;;;;;;19.43;92.97;101452.63;5048801;28;20061;-70
2022/08/03 00:47:42;;;;;;;19.45;4.57;;;;;;;19.41;92.81;101457.97;5048857;28;20029;-70
2022/08/03 00:50:08;;;;;;;12.73;4.50;;;;;;;19.38;92.33;101452.84;5049977;28;20436;-70
2022/08/03 00:52:34;;;;;;;23.48;5.45;;;;;;;19.31;93.40;101453.22;5050693;28;20021;-70
2022/08/03 00:55:00;;;;;;;16.85;4.65;;;;;;;19.23;93.37;101452.75;5050688;28;20017;-70
2022/08/03 00:57:26;;;;;;;13.68;4.63;;;;;;;19.23;93.73;101450.09;5049276;28;20051;-70
2022/08/03 00:59:51;;;;;;;17.40;5.38;;;;;;;19.25;93.32;101456.19;5050583;28;20383;-70
2022/08/03 01:02:16;;;;;;;18.45;4.90;;;;;;;19.17;93.43;101454.78;5049874;28;20076;-70
2022/08/03 01:04:41;;;;;;;13.60;4.75;;;;;;;19.20;93.16;101447.63;5053499;28;20020;-70
2022/08/03 01:07:20;;;;;;;16.25;4.47;;;;;;;19.18;93.03;101435.34;5053096;28;20021;-71
2022/08/03 01:10:22;;;;;;;13.57;4.55;;;;;;;19.12;92.40;101438.28;5053341;28;20032;-70
2022/08/03 01:13:07;;;;;;;10.63;4.07;;;;;;;19.13;92.43;101436.53;5054042;28;20040;-70
2022/08/03 01:15:45;;;;;;;14.15;4.50;;;;;;;19.10;92.99;101436.66;5054251;28;20443;-70
2022/08/03 01:18:21;;;;;;;12.90;4.72;;;;;;;19.10;93.27;101439.31;5051343;28;20469;-70
2022/08/03 01:20:52;;;;;;;9.70;4.28;;;;;;;19.09;93.79;101441.06;5054261;28;20021;-70
2022/08/03 01:23:33;;;;;;;14.65;4.68;;;;;;;19.09;93.72;101437.59;5053398;28;20040;-70
2022/08/03 01:26:29;;;;;;;10.15;4.57;;;;;;;19.05;93.18;101431.59;5052851;28;20029;-70
2022/08/03 01:28:54;;;;;;;10.50;4.40;;;;;;;19.06;94.17;101435.09;5052449;28;20476;-70
2022/08/03 01:31:25;;;;;;;12.23;3.87;;;;;;;18.99;94.14;101438.97;5052076;28;20021;-70
2022/08/03 01:33:58;;;;;;;15.43;4.30;;;;;;;18.91;94.78;101434.94;5053063;28;20136;-70
2022/08/03 01:36:28;;;;;;;12.15;4.63;;;;;;;18.84;94.77;101430.88;5053196;28;20033;-70
2022/08/03 01:38:59;;;;;;;8.05;3.83;;;;;;;18.79;94.96;101435.50;5052695;28;20075;-70
2022/08/03 01:41:31;;;;;;;10.93;4.50;;;;;;;18.82;95.04;101427.44;5053611;28;20048;-70
2022/08/03 01:43:59;;;;;;;6.60;3.85;;;;;;;18.77;95.09;101428.59;5053999;28;20071;-70
2022/08/03 01:46:25;;;;;;;11.45;3.65;;;;;;;18.73;94.88;101419.09;5050918;28;20024;-70
2022/08/03 01:48:50;;;;;;;10.95;4.10;;;;;;;18.79;95.24;101438.16;5051482;28;20086;-70
2022/08/03 01:51:18;;;;;;;14.60;4.18;;;;;;;18.81;95.02;101423.09;5051472;28;20033;-70
2022/08/03 01:53:47;;;;;;;8.13;3.92;;;;;;;18.84;95.32;101424.75;5051381;28;20472;-70
2022/08/03 01:56:15;;;;;;;9.27;4.15;;;;;;;18.83;95.27;101428.28;5052008;28;20060;-70
2022/08/03 01:58:42;;;;;;;12.23;4.15;;;;;;;18.77;95.43;101424.19;5052901;28;20087;-70
2022/08/03 02:01:09;;;;;;;7.28;3.95;;;;;;;18.77;94.83;101429.47;5051652;28;20505;-70
2022/08/03 02:03:39;;;;;;;12.13;4.35;;;;;;;18.75;94.98;101418.09;5053174;28;20468;-70
2022/08/03 02:06:05;;;;;;;11.65;4.53;;;;;;;18.74;95.58;101426.97;5052497;28;20021;-70
2022/08/03 02:08:32;;;;;;;7.45;3.60;;;;;;;18.73;95.57;101421.75;5053839;28;20036;-70
2022/08/03 02:10:58;;;;;;;8.60;3.83;;;;;;;18.67;96.08;101425.50;5053121;28;20496;-70
2022/08/03 02:13:25;;;;;;;9.07;4.32;;;;;;;18.68;95.96;101424.59;5052529;28;20037;-70
2022/08/03 02:15:52;;;;;;;8.82;3.80;;;;;;;18.63;95.97;101421.31;5052369;28;20025;-70
2022/08/03 02:18:19;;;;;;;10.88;4.07;;;;;;;18.61;96.30;101423.19;5052439;28;20032;-70
2022/08/03 02:20:46;;;;;;;12.43;4.45;;;;;;;18.57;96.79;101426.88;5052066;28;20059;-70
2022/08/03 02:23:13;;;;;;;10.00;4.18;;;;;;;18.57;96.07;101421.59;5052091;28;20036;-70
2022/08/03 02:25:43;;;;;;;8.52;4.15;;;;;;;18.59;96.85;101425.03;5052873;28;20116;-70
2022/08/03 02:28:18;;;;;;;7.97;4.40;;;;;;;18.56;96.85;101422.53;5051321;28;20048;-70
2022/08/03 02:30:49;;;;;;;14.98;4.07;;;;;;;18.57;96.77;101429.50;5052609;28;20017;-70
2022/08/03 02:33:20;;;;;;;10.65;4.00;;;;;;;18.50;97.01;101410.47;5052852;28;20104;-70
2022/08/03 02:35:48;;;;;;;12.13;4.20;;;;;;;18.56;96.78;101414.59;5051743;28;20094;-70
2022/08/03 02:38:18;;;;;;;10.40;4.57;;;;;;;18.55;97.16;101407.63;5050480;28;20033;-70
2022/08/03 02:40:45;;;;;;;12.73;4.97;;;;;;;18.53;97.47;101405.03;5051894;28;20032;-70
2022/08/03 02:43:16;;;;;;;11.23;5.05;;;;;;;18.58;97.57;101423.31;5051822;28;20032;-70
2022/08/03 02:45:45;;;;;;;13.07;4.70;;;;;;;18.57;98.00;101416.31;5052611;28;20036;-70
2022/08/03 02:48:14;;;;;;;11.48;4.80;;;;;;;18.60;97.89;101417.00;5048051;28;20507;-70
2022/08/03 02:50:41;;;;;;;11.45;4.68;;;;;;;18.59;98.36;101420.59;5044520;28;20025;-70
2022/08/03 02:53:09;;;;;;;11.20;5.07;;;;;;;18.61;97.99;101421.38;5052162;28;20021;-70
2022/08/03 02:55:35;;;;;;;11.68;5.15;;;;;;;18.56;98.04;101414.59;5051481;28;20380;-70
2022/08/03 02:58:02;;;;;;;10.98;5.07;;;;;;;18.49;98.60;101411.41;5049668;28;20029;-70
2022/08/03 03:00:30;;;;;;;9.90;4.80;;;;;;;18.46;98.85;101412.41;5052007;28;20480;-70
2022/08/03 03:03:01;;;;;;;10.88;4.75;;;;;;;18.46;98.25;101408.91;5051331;28;20104;-70
2022/08/03 03:05:27;;;;;;;13.68;4.97;;;;;;;18.41;98.49;101409.13;5052286;28;20053;-70
2022/08/03 03:07:53;;;;;;;11.25;4.82;;;;;;;18.36;98.97;101397.94;5051318;28;20055;-70
2022/08/03 03:10:21;;;;;;;10.43;5.15;;;;;;;18.31;99.14;101399.94;5051309;28;20041;-72
2022/08/03 03:12:50;;;;;;;11.07;4.97;;;;;;;18.31;99.08;101410.50;5051955;28;20021;-70
2022/08/03 03:15:16;;;;;;;15.50;5.28;;;;;;;18.33;98.89;101398.06;5051725;28;20103;-70
2022/08/03 03:17:42;;;;;;;11.30;4.90;;;;;;;18.33;99.13;101408.63;5050560;28;20116;-70
2022/08/03 03:20:09;;;;;;;7.93;4.90;;;;;;;18.32;99.16;101406.06;5051692;28;20025;-70
2022/08/03 03:22:34;;;;;;;11.82;5.07;;;;;;;18.32;99.01;101417.47;5051224;28;20033;-70
2022/08/03 03:25:00;;;;;;;10.90;5.03;;;;;;;18.29;99.06;101411.50;5048564;28;20495;-70
2022/08/03 03:27:26;;;;;;;11.88;5.35;;;;;;;18.27;98.76;101405.41;5050140;28;20033;-70
2022/08/03 03:29:51;;;;;;;8.35;4.88;;;;;;;18.24;98.41;101394.06;5051794;28;20033;-70
2022/08/03 03:32:17;;;;;;;13.65;5.43;;;;;;;18.23;98.51;101402.06;5051041;28;20049;-70
2022/08/03 03:34:43;;;;;;;10.10;5.03;;;;;;;18.22;98.76;101414.41;5051630;28;20086;-70
2022/08/03 03:37:08;;;;;;;11.80;5.38;;;;;;;18.17;98.68;101405.84;5049959;28;20111;-70
2022/08/03 03:39:35;;;;;;;14.02;4.95;;;;;;;18.12;98.74;101405.22;5050879;28;20021;-71
2022/08/03 03:42:01;;;;;;;9.00;5.28;;;;;;;18.06;99.57;101402.00;5051566;28;20549;-70
2022/08/03 03:44:27;;;;;;;10.88;5.20;;;;;;;18.05;99.50;101405.53;5051028;28;20479;-70
2022/08/03 03:46:54;;;;;;;13.48;5.15;;;;;;;18.05;99.13;101408.19;5048470;28;20481;-70
2022/08/03 03:49:19;;;;;;;10.50;5.38;;;;;;;17.95;99.52;101394.56;5051188;28;20044;-70
2022/08/03 03:51:45;;;;;;;8.20;5.20;;;;;;;18.00;99.26;101403.97;5051193;28;20013;-70
2022/08/03 03:54:10;;;;;;;12.23;4.78;;;;;;;17.97;99.21;101403.25;5050741;28;20037;-70
2022/08/03 03:56:35;;;;;;;11.90;4.97;;;;;;;17.98;99.52;101403.22;5050437;28;20029;-70
2022/08/03 03:59:01;;;;;;;14.55;5.13;;;;;;;17.96;99.89;101399.78;5049748;28;20021;-70
2022/08/03 04:01:26;;;;;;;8.52;4.47;;;;;;;17.97;99.75;101404.13;5050039;28;20403;-70
2022/08/03 04:03:51;;;;;;;9.85;4.68;;;;;;;17.94;99.27;101401.63;5051220;28;20403;-70
2022/08/03 04:11:51;;;;;;;10.75;4.85;;;;;;;17.95;99.68;101399.84;5050670;28;20048;-70
2022/08/03 04:14:32;;;;;;;11.20;4.95;;;;;;;17.96;99.24;101401.56;5050239;28;20036;-70
2022/08/03 04:17:01;;;;;;;8.13;4.47;;;;;;;17.93;99.25;101399.06;5050713;28;20029;-70
2022/08/03 04:19:34;;;;;;;9.32;4.80;;;;;;;17.96;99.80;101401.56;5050008;28;20040;-70
2022/08/03 04:22:04;;;;;;;10.95;4.90;;;;;;;17.96;99.53;101404.19;5047407;28;20025;-70
2022/08/03 04:24:34;;;;;;;14.57;4.85;;;;;;;17.95;99.72;101400.72;5051064;28;20119;-70
2022/08/03 04:27:03;;;;;;;10.73;4.75;;;;;;;17.96;99.65;101405.06;5050088;28;20047;-70
2022/08/03 04:29:32;;;;;;;9.80;4.45;;;;;;;17.98;99.11;101400.56;5050101;28;20048;-70
2022/08/03 04:31:58;;;;;;;11.60;4.63;;;;;;;17.99;99.23;101404.91;5050609;28;20384;-70
2022/08/03 04:34:24;;;;;;;9.88;4.88;;;;;;;17.99;99.20;101414.63;5049932;28;20491;-70
2022/08/03 04:36:56;;;;;;;12.23;4.25;;;;;;;18.01;99.57;101407.47;5050005;28;20029;-70
2022/08/03 04:39:27;;;;;;;9.40;4.50;;;;;;;18.02;99.52;101406.56;5054318;28;20021;-70
2022/08/03 04:41:55;;;;;;;14.98;4.68;;;;;;;18.02;99.33;101409.19;5054176;28;20628;-70
2022/08/03 04:44:22;;;;;;;8.52;4.47;;;;;;;18.08;99.23;101410.69;5054701;28;20472;-70
2022/08/03 04:46:48;;;;;;;11.02;4.72;;;;;;;18.07;99.28;101409.84;5054485;28;20111;-70
2022/08/03 04:49:14;;;;;;;8.82;4.60;;;;;;;18.12;99.22;101413.13;5053845;28;20465;-70
2022/08/03 04:51:41;;;;;;;12.38;4.15;;;;;;;18.12;99.09;101409.63;5054795;28;20029;-70
2022/08/03 04:54:11;;;;;;;8.98;4.25;;;;;;;18.16;99.44;101421.75;5054546;28;20029;-70
2022/08/03 04:56:39;;;;;;;10.30;4.53;;;;;;;18.14;99.55;101419.19;5050351;28;20032;-70
2022/08/03 04:59:04;;;;;;;8.18;4.05;;;;;;;18.21;98.62;101420.63;5046407;28;20029;-70
2022/08/03 05:01:30;;;;;;;10.98;4.80;;;;;;;18.24;98.28;101424.88;5053670;28;20029;-70
2022/08/03 05:03:55;;;;;;;10.25;4.13;;;;;;;18.27;98.19;101427.38;5053874;28;20047;-70
2022/08/03 05:06:20;;;;;;;10.32;4.05;;;;;;;18.30;98.07;101429.03;5053082;28;20029;-70
2022/08/03 05:08:46;;;;;;;6.97;3.97;;;;;;;18.31;98.35;101426.34;5054188;28;20059;-70
2022/08/03 05:11:11;;;;;;;9.73;4.78;;;;;;;18.38;97.87;101435.69;5053674;28;20454;-71
2022/08/03 05:13:36;;;;;;;11.73;4.38;;;;;;;18.40;96.94;101438.22;5054139;28;20021;-70
2022/08/03 05:16:01;;;;;;;6.72;4.43;;;;;;;18.42;97.18;101439.03;5053779;28;20135;-70
2022/08/03 05:18:27;;;;;;;7.95;3.90;;;;;;;18.47;96.74;101437.00;5053810;28;20017;-70
2022/08/03 05:20:52;;;;;;;6.20;3.08;;;;;;;18.57;96.21;101446.22;5054105;28;20033;-70
2022/08/03 05:23:17;;;;;;;14.57;4.55;;;;;;;18.61;95.57;101439.88;5053763;28;20080;-70
2022/08/03 05:25:43;;;;;;;8.25;3.75;;;;;;;18.64;96.40;101441.53;5053483;28;20096;-70
2022/08/03 05:28:08;;;;;;;9.80;4.20;;;;;;;18.66;95.50;101447.56;5053101;28;20087;-70
2022/08/03 05:30:33;;;;;;;8.30;3.40;;;;;;;18.73;94.93;101441.09;5053501;28;20380;-70
2022/08/03 05:32:58;;;;;;;12.88;3.40;;;;;;;18.78;95.60;101447.03;5053500;28;20535;-70
2022/08/03 05:35:25;;;;;;;11.05;4.30;;;;;;;18.83;95.43;101449.44;5053685;28;20043;-70
2022/08/03 05:37:50;;;;;;;15.05;4.40;;;;;;;18.87;94.45;101457.16;5052121;28;20041;-70
2022/08/03 05:40:16;;;;;;;6.05;3.30;;;;;;;18.92;94.40;101455.13;5052713;28;20047;-70
2022/08/03 05:42:41;;;;;;;11.25;3.85;;;;;;;19.00;93.65;101456.53;5053635;28;20033;-70
2022/08/03 05:45:13;;;;;;;10.15;3.70;;;;;;;19.05;92.14;101454.53;5052698;28;20117;-70
2022/08/03 05:47:43;;;;;;;8.87;3.47;;;;;;;19.09;92.66;101456.06;5052411;28;20040;-70
2022/08/03 05:50:09;;;;;;;9.93;3.25;;;;;;;19.16;92.80;101454.84;5052029;28;20037;-70
2022/08/03 05:52:34;;;;;;;8.52;3.38;;;;;;;19.23;92.60;101461.56;5052884;28;20119;-70
2022/08/03 05:55:00;;;;;;;8.07;3.40;;;;;;;19.29;91.35;101460.38;5053570;28;20101;-70
2022/08/03 05:57:25;;;;;;;7.82;3.40;;;;;;;19.35;90.49;101460.91;5052025;28;20111;-70
2022/08/03 05:59:50;;;;;;;8.70;3.60;;;;;;;19.40;90.82;101455.41;5051098;28;20029;-70
2022/08/03 06:02:15;;;;;;;12.60;3.10;;;;;;;19.44;91.21;101454.31;5053962;28;20104;-70
2022/08/03 06:04:41;;;;;;;7.18;3.50;;;;;;;19.52;89.76;101460.09;5053192;28;20048;-70
2022/08/03 06:07:06;;;;;;;6.45;3.33;;;;;;;19.59;89.67;101456.19;5051971;28;20021;-70
2022/08/03 06:09:31;;;;;;;10.55;3.42;;;;;;;19.63;89.95;101460.41;5053514;28;20029;-70
2022/08/03 06:11:56;;;;;;;14.65;3.92;;;;;;;19.68;89.18;101457.53;5050867;28;20037;-70
2022/08/03 06:14:22;;;;;;;8.73;3.05;;;;;;;19.75;88.77;101456.28;5052491;28;20043;-70
2022/08/03 06:16:47;;;;;;;9.02;3.03;;;;;;;19.80;88.06;101456.88;5051791;28;20078;-70
2022/08/03 06:19:12;;;;;;;14.13;3.33;;;;;;;19.87;87.22;101460.06;5052149;28;20029;-70
2022/08/03 06:21:37;;;;;;;9.85;2.95;;;;;;;19.95;87.15;101462.31;5052444;28;20120;-70
2022/08/03 06:24:03;;;;;;;10.43;2.88;;;;;;;20.00;86.67;101457.63;5053042;28;20029;-70
2022/08/03 06:26:28;;;;;;;9.80;2.90;;;;;;;20.03;86.32;101453.03;5051710;28;20048;-70
2022/08/03 06:28:54;;;;;;;12.45;3.17;;;;;;;20.08;86.03;101456.28;5051923;28;20017;-70
2022/08/03 06:31:25;;;;;;;35.03;4.70;;;;;;;20.25;87.68;101455.38;5052358;28;20108;-70
2022/08/03 06:33:51;;;;;;;8.15;2.53;;;;;;;20.25;86.04;101455.38;5052347;28;20055;-70
2022/08/03 06:36:16;;;;;;;8.43;3.13;;;;;;;20.32;84.93;101459.41;5052403;28;20033;-70
2022/08/03 06:38:41;;;;;;;12.80;3.25;;;;;;;20.40;85.14;101464.25;5051703;28;20391;-70
2022/08/03 06:41:07;;;;;;;7.13;2.80;;;;;;;20.46;83.89;101463.94;5051239;28;20025;-70
2022/08/03 06:43:36;;;;;;;7.65;2.58;;;;;;;20.52;83.52;101468.94;5052538;28;20037;-70
2022/08/03 06:46:01;;;;;;;8.48;2.70;;;;;;;20.54;84.10;101472.34;5052404;28;20071;-70
2022/08/03 06:48:27;;;;;;;11.90;3.15;;;;;;;20.63;82.64;101475.41;5051796;28;20492;-70
2022/08/03 06:50:52;;;;;;;8.70;3.40;;;;;;;20.68;83.28;101474.22;5052070;28;20194;-70
2022/08/03 06:53:17;;;;;;;9.55;3.05;;;;;;;20.71;82.51;101473.22;5052324;28;20056;-70
2022/08/03 06:55:43;;;;;;;10.23;2.47;;;;;;;20.75;82.57;101465.00;5051474;28;20068;-70
2022/08/03 06:58:08;;;;;;;5.00;2.42;;;;;;;20.87;82.80;101470.56;5050744;28;20037;-70
2022/08/03 07:00:33;;;;;;;8.70;2.83;;;;;;;20.94;80.38;101462.16;5050813;28;20464;-70
2022/08/03 07:02:59;;;;;;;9.38;2.58;;;;;;;21.07;81.13;101469.41;5051176;28;20503;-70
2022/08/03 07:05:24;;;;;;;8.43;2.20;;;;;;;21.11;80.74;101465.63;5052200;28;20112;-70
2022/08/03 07:07:50;;;;;;;7.47;2.42;;;;;;;21.13;79.44;101469.91;5050995;28;20087;-70
2022/08/03 07:10:15;;;;;;;8.52;2.85;;;;;;;21.13;80.28;101469.91;5051351;28;20028;-71
2022/08/03 07:12:40;;;;;;;6.93;2.28;;;;;;;21.19;80.21;101480.19;5050598;28;20032;-70
2022/08/03 07:15:06;;;;;;;12.10;2.58;;;;;;;21.27;79.89;101488.53;5051559;28;20033;-70
2022/08/03 07:17:34;;;;;;;7.97;2.40;;;;;;;21.26;79.89;101473.56;5048587;28;20060;-70
2022/08/03 07:20:00;;;;;;;11.77;2.67;;;;;;;21.28;78.97;101484.91;5049532;28;20029;-70
2022/08/03 07:22:26;;;;;;;12.95;2.65;;;;;;;21.30;78.19;101476.03;5050605;28;20040;-70
2022/08/03 07:24:51;;;;;;;13.02;3.15;;;;;;;21.39;78.21;101483.50;5049007;28;20026;-70
2022/08/03 07:27:17;;;;;;;11.60;2.80;;;;;;;21.49;77.33;101487.31;5051610;28;20033;-70
2022/08/03 07:29:42;;;;;;;12.85;3.25;;;;;;;21.60;76.71;101499.94;5051342;28;20392;-70
2022/08/03 07:32:07;;;;;;;13.00;2.95;;;;;;;21.67;76.80;101490.66;5051624;28;20124;-70
2022/08/03 07:34:33;;;;;;;11.73;3.33;;;;;;;21.76;75.91;101489.25;5051231;28;20075;-70
2022/08/03 07:36:58;;;;;;;10.65;3.28;;;;;;;21.88;76.14;101491.19;5052204;28;20024;-70
2022/08/03 07:39:23;;;;;;;9.45;2.70;;;;;;;21.94;76.28;101482.81;5053536;28;20070;-70
2022/08/03 07:41:50;;;;;;;11.93;3.13;;;;;;;22.05;74.22;101484.84;5049922;28;20043;-70
2022/08/03 07:44:17;;;;;;;6.55;2.63;;;;;;;22.14;75.01;101490.44;5050836;28;20029;-70
2022/08/03 07:46:42;;;;;;;10.02;3.05;;;;;;;22.20;74.34;101474.16;5050864;28;20025;-70
2022/08/03 07:49:07;;;;;;;13.68;3.00;;;;;;;22.33;74.16;101478.69;5050534;28;20132;-70
2022/08/03 07:51:33;;;;;;;12.68;2.90;;;;;;;22.37;71.23;101483.72;5050700;28;20015;-70
2022/08/03 07:53:59;;;;;;;10.45;2.90;;;;;;;22.42;73.32;101488.72;5057819;28;20024;-70
2022/08/03 07:56:25;;;;;;;14.35;2.95;;;;;;;22.50;72.42;101483.81;5053559;28;20032;-70
2022/08/03 07:58:51;;;;;;;16.38;2.47;;;;;;;22.57;72.44;101482.47;5046402;28;20021;-72
2022/08/03 08:01:18;;;;;;;14.65;2.97;;;;;;;22.62;70.96;101484.81;5048645;28;20025;-73
2022/08/03 08:03:44;;;;;;;9.50;2.38;;;;;;;22.64;69.86;101483.75;5050114;28;20047;-73
2022/08/03 08:06:09;;;;;;;10.75;2.88;;;;;;;22.61;69.03;101478.66;5050619;28;20457;-73
2022/08/03 08:08:34;;;;;;;7.22;2.55;;;;;;;22.67;69.86;101480.06;5050264;28;20112;-73
2022/08/03 08:11:00;;;;;;;16.70;3.58;;;;;;;22.66;70.44;101481.88;5048345;28;20041;-73
2022/08/03 08:13:25;;;;;;;12.63;2.80;;;;;;;22.81;69.81;101487.13;5049432;28;20039;-73
2022/08/03 08:15:50;;;;;;;10.10;2.83;;;;;;;22.89;69.48;101484.84;5050157;28;20103;-73
2022/08/03 08:18:15;;;;;;;10.23;3.10;;;;;;;22.98;68.76;101478.09;5050894;28;20023;-73
2022/08/03 08:20:41;;;;;;;12.88;3.00;;;;;;;23.05;68.59;101474.06;5049632;28;20358;-74
2022/08/03 08:23:07;;;;;;;12.32;2.50;;;;;;;23.14;68.65;101476.97;5049862;28;20055;-73
2022/08/03 08:25:33;;;;;;;12.75;2.50;;;;;;;23.20;68.47;101469.56;5050037;28;20029;-73
2022/08/03 08:28:03;;;;;;;14.38;3.00;;;;;;;23.30;68.13;101474.16;5051022;28;20017;-73
2022/08/03 08:30:30;;;;;;;13.98;3.28;;;;;;;23.36;65.71;101478.22;5050166;28;20056;-73
2022/08/03 08:32:56;;;;;;;12.65;2.83;;;;;;;23.43;64.87;101473.34;5050723;28;20033;-73
2022/08/03 08:35:22;;;;;;;12.55;3.25;;;;;;;23.54;65.70;101470.78;5050100;28;20079;-74
2022/08/03 08:37:47;;;;;;;13.32;2.92;;;;;;;23.67;66.50;101465.47;5049938;28;20032;-74
2022/08/03 08:40:13;;;;;;;12.95;3.20;;;;;;;23.72;66.04;101466.06;5047500;28;20025;-74
2022/08/03 08:42:40;;;;;;;15.13;2.83;;;;;;;23.78;65.06;101465.63;5055904;28;20055;-73
2022/08/03 08:45:07;;;;;;;11.25;3.08;;;;;;;23.86;65.10;101462.44;5050909;28;20020;-73
2022/08/03 08:47:36;;;;;;;14.65;3.10;;;;;;;23.92;65.08;101465.53;5050113;28;20459;-73
2022/08/03 08:50:02;;;;;;;9.63;2.70;;;;;;;24.06;64.12;101469.88;5048888;28;20489;-73
2022/08/03 08:52:29;;;;;;;14.05;2.85;;;;;;;24.19;62.76;101480.53;5053817;28;20031;-73
2022/08/03 08:54:57;;;;;;;13.63;2.78;;;;;;;24.29;62.10;101466.44;5048210;28;20025;-74
2022/08/03 08:57:29;;;;;;;14.25;2.55;;;;;;;24.41;61.59;101470.06;5049957;28;20025;-73
2022/08/03 08:59:55;;;;;;;13.15;2.67;;;;;;;24.49;61.17;101464.19;5048824;28;20036;-74
2022/08/03 09:02:23;;;;;;;12.32;2.88;;;;;;;24.59;61.17;101462.56;5048442;28;20021;-73
2022/08/03 09:04:49;;;;;;;9.88;2.60;;;;;;;24.69;60.61;101466.25;5048638;28;20036;-73
2022/08/03 09:07:14;;;;;;;11.95;2.92;;;;;;;24.87;64.17;101460.53;5048957;28;20033;-73
2022/08/03 09:09:41;;;;;;;10.27;2.65;;;;;;;24.96;59.74;101466.03;5050040;28;20017;-74
2022/08/03 09:12:07;;;;;;;11.90;2.47;;;;;;;25.02;60.78;101467.41;5050025;28;20048;-73
2022/08/03 09:14:33;;;;;;;16.63;2.90;;;;;;;25.11;58.59;101466.69;5036669;28;20049;-74
2022/08/03 09:17:03;;;;;;;15.07;3.08;;;;;;;25.29;59.78;101469.84;5046980;28;20360;-74
2022/08/03 09:19:33;;;;;;;10.60;2.97;;;;;;;25.38;58.17;101471.81;5050400;28;20384;-74
2022/08/03 09:22:08;;;;;;;13.48;2.42;;;;;;;25.51;59.13;101466.41;5049335;28;20086;-75
2022/08/03 09:24:34;;;;;;;11.60;2.72;;;;;;;25.60;58.29;101464.81;5051180;28;20037;-74
2022/08/03 09:27:00;;;;;;;14.00;2.83;;;;;;;25.71;56.47;101470.19;5054189;28;20025;-74
2022/08/03 09:29:25;;;;;;;14.60;2.95;;;;;;;25.76;56.93;101461.81;5053730;28;20024;-74
2022/08/03 09:32:01;;;;;;;14.48;3.08;;;;;;;25.86;57.21;101471.69;5050674;28;20056;-74
2022/08/03 09:34:29;;;;;;;10.30;2.20;;;;;;;25.98;55.29;101461.03;5046632;28;20108;-74
2022/08/03 09:36:56;;;;;;;7.70;2.22;;;;;;;26.07;56.88;101455.81;5050826;28;20461;-74
2022/08/03 09:39:24;;;;;;;12.15;2.90;;;;;;;26.12;54.57;101466.13;5053771;28;20009;-74
2022/08/03 09:42:17;;;;;;;12.77;2.60;;;;;;;26.23;55.29;101458.13;5052916;28;20033;-74
2022/08/03 09:44:48;;;;;;;11.13;3.03;;;;;;;26.29;55.31;101454.97;5052119;28;20025;-74
2022/08/03 09:47:16;;;;;;;14.20;3.03;;;;;;;26.33;54.38;101461.75;5053174;28;20118;-75
2022/08/03 09:49:54;;;;;;;13.07;3.45;;;;;;;26.44;52.10;101468.03;5053065;28;20483;-74
2022/08/03 09:52:23;;;;;;;19.17;3.47;;;;;;;26.54;53.67;101466.34;5050512;28;20029;-73
2022/08/03 09:54:51;;;;;;;14.23;3.33;;;;;;;26.62;51.59;101469.28;5052943;28;20036;-73
2022/08/03 09:57:21;;;;;;;11.45;3.28;;;;;;;26.67;53.63;101461.72;5053129;28;20036;-74
2022/08/03 09:59:47;;;;;;;13.55;2.92;;;;;;;26.80;52.92;101466.91;5052875;28;20013;-74
2022/08/03 10:02:24;;;;;;;15.57;3.03;;;;;;;26.95;53.16;101454.09;5050780;28;20029;-74
2022/08/03 10:04:51;;;;;;;8.38;2.70;;;;;;;27.06;50.93;101459.41;5049732;28;20053;-74
2022/08/03 10:07:20;;;;;;;17.13;3.22;;;;;;;27.09;52.34;101457.31;5050502;28;20082;-74
2022/08/03 10:09:59;;;;;;;14.57;3.60;;;;;;;27.19;51.29;101449.38;5050100;28;20489;-74
2022/08/03 10:12:26;;;;;;;19.27;4.05;;;;;;;27.37;50.16;101449.69;5049814;28;20161;-74
2022/08/03 10:14:53;;;;;;;19.17;3.13;;;;;;;27.42;50.88;101459.97;5055002;28;20503;-74
2022/08/03 10:17:20;;;;;;;18.27;3.58;;;;;;;27.40;51.02;101451.22;5052804;28;20147;-74
2022/08/03 10:19:46;;;;;;;16.33;3.05;;;;;;;27.54;49.50;101457.09;5054480;28;20151;-74
2022/08/03 10:22:22;;;;;;;17.33;3.20;;;;;;;27.68;49.06;101450.56;5051898;28;20025;-74
2022/08/03 10:25:06;;;;;;;13.93;2.83;;;;;;;27.81;50.78;101452.22;5044623;28;20029;-70
2022/08/03 10:27:41;;;;;;;19.35;3.30;;;;;;;27.75;49.41;101449.03;5051062;28;20024;-70
2022/08/03 10:30:09;;;;;;;15.88;3.72;;;;;;;27.84;50.78;101457.31;5053325;28;20032;-71
2022/08/03 10:32:47;;;;;;;16.48;3.30;;;;;;;27.93;50.02;101448.47;5049242;28;20032;-71
2022/08/03 10:35:15;;;;;;;17.63;3.63;;;;;;;28.08;47.49;101448.94;5052454;28;20495;-71
2022/08/03 10:37:48;;;;;;;19.08;3.22;;;;;;;28.26;48.96;101441.13;5052540;28;20104;-70
2022/08/03 10:40:18;;;;;;;13.63;3.63;;;;;;;28.33;48.20;101445.78;5052067;28;20036;-71
2022/08/03 10:42:45;;;;;;;14.95;3.22;;;;;;;28.44;47.19;101439.50;5052285;28;20054;-70
2022/08/03 10:45:32;;;;;;;22.88;3.85;;;;;;;28.54;47.53;101431.47;5052172;28;20469;-71
2022/08/03 10:47:59;;;;;;;16.48;3.20;;;;;;;28.65;46.00;101426.84;5052125;28;20013;-71
2022/08/03 10:50:25;;;;;;;18.25;3.83;;;;;;;28.93;46.21;101424.28;5052569;28;20029;-71
2022/08/03 10:52:58;;;;;;;18.92;3.22;;;;;;;28.97;45.27;101430.22;5051842;28;20353;-71
2022/08/03 10:58:36;;;;;;;13.35;2.88;;;;;;;29.13;45.08;101419.78;5052485;28;20042;-71
2022/08/03 11:01:02;;;;;;;16.23;3.42;;;;;;;29.33;44.56;101409.88;5052031;28;20365;-70
2022/08/03 11:03:28;;;;;;;16.90;3.15;;;;;;;29.45;44.41;101408.72;5051514;28;20028;-71
2022/08/03 11:06:14;;;;;;;12.05;2.72;;;;;;;29.56;44.68;101413.94;5051887;28;20029;-71
2022/08/03 11:08:39;;;;;;;11.45;2.58;;;;;;;29.77;44.27;101408.38;5051818;28;20470;-71
2022/08/03 11:11:16;;;;;;;11.93;2.85;;;;;;;29.84;43.35;101404.09;5052176;28;20518;-71
2022/08/03 11:14:18;;;;;;;10.45;2.67;;;;;;;29.99;44.36;101388.31;5051949;28;20055;-70
2022/08/03 11:16:47;;;;;;;7.82;2.53;;;;;;;30.18;40.87;101397.25;5049892;28;20056;-71
2022/08/03 11:19:18;;;;;;;13.00;3.05;;;;;;;30.44;42.60;101397.41;5051903;28;20033;-71
2022/08/03 11:21:47;;;;;;;14.85;2.78;;;;;;;30.58;40.70;101401.44;5051566;28;20053;-71
2022/08/03 11:24:50;;;;;;;11.57;2.47;;;;;;;30.70;42.18;101400.19;5051299;28;20029;-71
2022/08/03 11:27:15;;;;;;;;;;;;;;;30.85;43.30;101395.16;5051697;28;20473;-71
2022/08/03 11:29:59;;;;;;;14.18;2.95;;;;;;;30.96;40.57;101395.75;5051301;28;20399;-71
2022/08/03 11:32:37;;;;;;;10.25;2.67;;;;;;;30.88;41.26;101397.53;5051680;28;20485;-71